sensor_id;sensor_type;location;lat;lon;timestamp;P1;durP1;ratioP1;P2;durP2;ratioP2
63016;SDS011;50274;45.640;11.756;2023-02-15T00:00:21;65.53;;;37.10;;
63016;SDS011;50274;45.640;11.756;2023-02-15T00:02:46;66.85;;;36.92;;
63016;SDS011;50274;45.640;11.756;2023-02-15T00:05:12;68.90;;;37.72;;
63016;SDS011;50274;45.640;11.756;2023-02-15T00:07:38;68.67;;;37.00;;
63016;SDS011;50274;45.640;11.756;2023-02-15T00:10:04;61.63;;;36.45;;
63016;SDS011;50274;45.640;11.756;2023-02-15T00:12:31;68.57;;;37.72;;
63016;SDS011;50274;45.640;11.756;2023-02-15T00:14:57;65.97;;;36.30;;
63016;SDS011;50274;45.640;11.756;2023-02-15T00:17:23;63.60;;;35.67;;
63016;SDS011;50274;45.640;11.756;2023-02-15T00:19:48;60.45;;;36.22;;
63016;SDS011;50274;45.640;11.756;2023-02-15T00:22:14;62.83;;;35.47;;
63016;SDS011;50274;45.640;11.756;2023-02-15T00:24:40;59.33;;;34.50;;
63016;SDS011;50274;45.640;11.756;2023-02-15T00:27:06;61.30;;;35.30;;
63016;SDS011;50274;45.640;11.756;2023-02-15T00:29:34;58.00;;;33.70;;
63016;SDS011;50274;45.640;11.756;2023-02-15T00:31:59;57.67;;;34.80;;
63016;SDS011;50274;45.640;11.756;2023-02-15T00:34:26;61.47;;;34.30;;
63016;SDS011;50274;45.640;11.756;2023-02-15T00:36:52;60.77;;;35.50;;
63016;SDS011;50274;45.640;11.756;2023-02-15T00:39:19;57.50;;;34.38;;
63016;SDS011;50274;45.640;11.756;2023-02-15T00:41:45;58.83;;;34.35;;
63016;SDS011;50274;45.640;11.756;2023-02-15T00:44:12;60.92;;;35.22;;
63016;SDS011;50274;45.640;11.756;2023-02-15T00:46:38;55.20;;;32.00;;
63016;SDS011;50274;45.640;11.756;2023-02-15T00:49:04;58.03;;;33.20;;
63016;SDS011;50274;45.640;11.756;2023-02-15T00:51:30;58.40;;;34.50;;
63016;SDS011;50274;45.640;11.756;2023-02-15T00:53:57;66.60;;;34.90;;
63016;SDS011;50274;45.640;11.756;2023-02-15T00:56:22;58.63;;;34.20;;
63016;SDS011;50274;45.640;11.756;2023-02-15T00:58:48;57.23;;;31.60;;
63016;SDS011;50274;45.640;11.756;2023-02-15T01:01:18;59.35;;;32.50;;
63016;SDS011;50274;45.640;11.756;2023-02-15T01:03:45;54.53;;;31.98;;
63016;SDS011;50274;45.640;11.756;2023-02-15T01:06:11;61.73;;;34.33;;
63016;SDS011;50274;45.640;11.756;2023-02-15T01:08:38;54.05;;;32.08;;
63016;SDS011;50274;45.640;11.756;2023-02-15T01:11:05;54.83;;;32.25;;
63016;SDS011;50274;45.640;11.756;2023-02-15T01:13:32;61.10;;;34.53;;
63016;SDS011;50274;45.640;11.756;2023-02-15T01:15:59;50.67;;;31.52;;
63016;SDS011;50274;45.640;11.756;2023-02-15T01:18:25;54.60;;;32.23;;
63016;SDS011;50274;45.640;11.756;2023-02-15T01:20:51;60.20;;;32.80;;
63016;SDS011;50274;45.640;11.756;2023-02-15T01:23:17;52.00;;;30.10;;
63016;SDS011;50274;45.640;11.756;2023-02-15T01:25:43;52.80;;;31.95;;
63016;SDS011;50274;45.640;11.756;2023-02-15T01:28:09;58.47;;;32.40;;
63016;SDS011;50274;45.640;11.756;2023-02-15T01:30:35;58.58;;;32.72;;
63016;SDS011;50274;45.640;11.756;2023-02-15T01:33:01;57.47;;;32.80;;
63016;SDS011;50274;45.640;11.756;2023-02-15T01:35:27;59.57;;;31.73;;
63016;SDS011;50274;45.640;11.756;2023-02-15T01:37:54;50.65;;;28.88;;
63016;SDS011;50274;45.640;11.756;2023-02-15T01:40:20;49.13;;;29.27;;
63016;SDS011;50274;45.640;11.756;2023-02-15T01:42:50;50.60;;;30.42;;
63016;SDS011;50274;45.640;11.756;2023-02-15T01:55:38;50.03;;;29.30;;
63016;SDS011;50274;45.640;11.756;2023-02-15T01:58:07;55.35;;;30.45;;
63016;SDS011;50274;45.640;11.756;2023-02-15T02:00:33;51.80;;;29.50;;
63016;SDS011;50274;45.640;11.756;2023-02-15T02:03:00;53.17;;;30.02;;
63016;SDS011;50274;45.640;11.756;2023-02-15T02:05:27;46.45;;;28.27;;
63016;SDS011;50274;45.640;11.756;2023-02-15T02:07:54;57.85;;;31.48;;
63016;SDS011;50274;45.640;11.756;2023-02-15T02:10:23;59.17;;;31.58;;
63016;SDS011;50274;45.640;11.756;2023-02-15T02:12:51;49.53;;;28.70;;
63016;SDS011;50274;45.640;11.756;2023-02-15T02:15:20;54.00;;;30.15;;
63016;SDS011;50274;45.640;11.756;2023-02-15T02:18:26;56.67;;;30.00;;
63016;SDS011;50274;45.640;11.756;2023-02-15T02:26:54;55.37;;;30.13;;
63016;SDS011;50274;45.640;11.756;2023-02-15T02:30:34;52.28;;;29.45;;
63016;SDS011;50274;45.640;11.756;2023-02-15T02:36:00;52.53;;;27.88;;
63016;SDS011;50274;45.640;11.756;2023-02-15T02:38:48;53.17;;;28.58;;
63016;SDS011;50274;45.640;11.756;2023-02-15T02:41:31;50.20;;;28.23;;
63016;SDS011;50274;45.640;11.756;2023-02-15T02:44:12;57.47;;;30.67;;
63016;SDS011;50274;45.640;11.756;2023-02-15T02:46:46;50.05;;;28.23;;
63016;SDS011;50274;45.640;11.756;2023-02-15T02:49:40;55.40;;;29.27;;
63016;SDS011;50274;45.640;11.756;2023-02-15T02:52:53;53.05;;;27.08;;
63016;SDS011;50274;45.640;11.756;2023-02-15T02:55:03;48.43;;;27.97;;
63016;SDS011;50274;45.640;11.756;2023-02-15T02:57:45;51.25;;;27.52;;
63016;SDS011;50274;45.640;11.756;2023-02-15T03:00:17;50.15;;;27.55;;
63016;SDS011;50274;45.640;11.756;2023-02-15T03:02:45;53.75;;;28.33;;
63016;SDS011;50274;45.640;11.756;2023-02-15T03:05:18;54.25;;;30.38;;
63016;SDS011;50274;45.640;11.756;2023-02-15T03:07:48;54.20;;;30.30;;
63016;SDS011;50274;45.640;11.756;2023-02-15T03:10:16;51.08;;;28.10;;
63016;SDS011;50274;45.640;11.756;2023-02-15T03:12:44;51.55;;;28.33;;
63016;SDS011;50274;45.640;11.756;2023-02-15T03:15:10;52.53;;;29.27;;
63016;SDS011;50274;45.640;11.756;2023-02-15T03:17:48;52.88;;;29.08;;
63016;SDS011;50274;45.640;11.756;2023-02-15T03:20:31;50.53;;;27.97;;
63016;SDS011;50274;45.640;11.756;2023-02-15T03:23:02;54.28;;;29.42;;
63016;SDS011;50274;45.640;11.756;2023-02-15T03:25:33;49.55;;;29.52;;
63016;SDS011;50274;45.640;11.756;2023-02-15T03:28:11;52.00;;;28.58;;
63016;SDS011;50274;45.640;11.756;2023-02-15T03:30:42;54.35;;;29.42;;
63016;SDS011;50274;45.640;11.756;2023-02-15T03:33:12;46.00;;;25.80;;
63016;SDS011;50274;45.640;11.756;2023-02-15T03:35:50;55.50;;;28.70;;
63016;SDS011;50274;45.640;11.756;2023-02-15T03:38:29;53.38;;;28.35;;
63016;SDS011;50274;45.640;11.756;2023-02-15T03:41:02;56.22;;;27.60;;
63016;SDS011;50274;45.640;11.756;2023-02-15T03:43:53;52.63;;;28.63;;
63016;SDS011;50274;45.640;11.756;2023-02-15T03:51:57;49.38;;;27.88;;
63016;SDS011;50274;45.640;11.756;2023-02-15T03:54:26;49.88;;;27.00;;
63016;SDS011;50274;45.640;11.756;2023-02-15T03:57:17;52.97;;;28.30;;
63016;SDS011;50274;45.640;11.756;2023-02-15T04:00:09;49.27;;;27.23;;
63016;SDS011;50274;45.640;11.756;2023-02-15T04:03:17;55.92;;;28.35;;
63016;SDS011;50274;45.640;11.756;2023-02-15T04:06:05;50.15;;;28.02;;
63016;SDS011;50274;45.640;11.756;2023-02-15T04:08:31;49.20;;;26.98;;
63016;SDS011;50274;45.640;11.756;2023-02-15T04:11:16;51.95;;;27.27;;
63016;SDS011;50274;45.640;11.756;2023-02-15T04:13:42;50.40;;;28.77;;
63016;SDS011;50274;45.640;11.756;2023-02-15T04:16:07;56.63;;;29.42;;
63016;SDS011;50274;45.640;11.756;2023-02-15T04:18:37;46.70;;;25.63;;
63016;SDS011;50274;45.640;11.756;2023-02-15T04:21:23;53.47;;;27.65;;
63016;SDS011;50274;45.640;11.756;2023-02-15T04:24:09;43.50;;;23.37;;
63016;SDS011;50274;45.640;11.756;2023-02-15T04:26:53;51.30;;;26.08;;
63016;SDS011;50274;45.640;11.756;2023-02-15T04:29:21;49.97;;;25.45;;
63016;SDS011;50274;45.640;11.756;2023-02-15T04:31:48;55.97;;;28.67;;
63016;SDS011;50274;45.640;11.756;2023-02-15T04:34:15;44.97;;;25.45;;
63016;SDS011;50274;45.640;11.756;2023-02-15T04:36:41;47.63;;;25.07;;
63016;SDS011;50274;45.640;11.756;2023-02-15T04:39:07;45.33;;;24.67;;
63016;SDS011;50274;45.640;11.756;2023-02-15T04:41:34;46.13;;;26.42;;
63016;SDS011;50274;45.640;11.756;2023-02-15T04:44:00;47.38;;;26.98;;
63016;SDS011;50274;45.640;11.756;2023-02-15T04:46:27;44.67;;;26.23;;
63016;SDS011;50274;45.640;11.756;2023-02-15T04:48:53;44.40;;;24.83;;
63016;SDS011;50274;45.640;11.756;2023-02-15T04:51:19;39.88;;;22.88;;
63016;SDS011;50274;45.640;11.756;2023-02-15T04:53:45;46.28;;;24.73;;
63016;SDS011;50274;45.640;11.756;2023-02-15T04:56:11;43.97;;;23.57;;
63016;SDS011;50274;45.640;11.756;2023-02-15T04:58:37;42.72;;;24.77;;
63016;SDS011;50274;45.640;11.756;2023-02-15T05:01:06;40.08;;;22.77;;
63016;SDS011;50274;45.640;11.756;2023-02-15T05:03:33;43.33;;;23.90;;
63016;SDS011;50274;45.640;11.756;2023-02-15T05:05:59;40.47;;;22.55;;
63016;SDS011;50274;45.640;11.756;2023-02-15T05:08:25;39.10;;;21.70;;
63016;SDS011;50274;45.640;11.756;2023-02-15T05:10:51;48.33;;;24.40;;
63016;SDS011;50274;45.640;11.756;2023-02-15T05:13:17;41.67;;;22.15;;
63016;SDS011;50274;45.640;11.756;2023-02-15T05:15:52;36.87;;;20.77;;
63016;SDS011;50274;45.640;11.756;2023-02-15T05:18:19;42.00;;;22.15;;
63016;SDS011;50274;45.640;11.756;2023-02-15T05:20:46;44.13;;;21.95;;
63016;SDS011;50274;45.640;11.756;2023-02-15T05:23:12;38.17;;;21.88;;
63016;SDS011;50274;45.640;11.756;2023-02-15T05:25:38;40.53;;;20.83;;
63016;SDS011;50274;45.640;11.756;2023-02-15T05:28:23;42.30;;;22.33;;
63016;SDS011;50274;45.640;11.756;2023-02-15T05:30:57;39.65;;;21.17;;
63016;SDS011;50274;45.640;11.756;2023-02-15T05:33:50;39.15;;;21.50;;
63016;SDS011;50274;45.640;11.756;2023-02-15T05:36:16;37.63;;;20.60;;
63016;SDS011;50274;45.640;11.756;2023-02-15T05:38:42;42.92;;;22.00;;
63016;SDS011;50274;45.640;11.756;2023-02-15T05:41:09;35.73;;;19.60;;
63016;SDS011;50274;45.640;11.756;2023-02-15T05:43:36;33.22;;;18.85;;
63016;SDS011;50274;45.640;11.756;2023-02-15T05:46:03;35.00;;;19.55;;
63016;SDS011;50274;45.640;11.756;2023-02-15T05:48:29;36.10;;;19.13;;
63016;SDS011;50274;45.640;11.756;2023-02-15T05:50:59;33.30;;;18.77;;
63016;SDS011;50274;45.640;11.756;2023-02-15T05:53:38;33.60;;;18.37;;
63016;SDS011;50274;45.640;11.756;2023-02-15T05:56:05;36.90;;;19.25;;
63016;SDS011;50274;45.640;11.756;2023-02-15T05:58:33;35.20;;;17.85;;
63016;SDS011;50274;45.640;11.756;2023-02-15T06:01:19;31.67;;;16.70;;
63016;SDS011;50274;45.640;11.756;2023-02-15T06:03:47;36.72;;;18.77;;
63016;SDS011;50274;45.640;11.756;2023-02-15T06:06:13;32.97;;;17.77;;
63016;SDS011;50274;45.640;11.756;2023-02-15T06:08:40;37.28;;;20.05;;
63016;SDS011;50274;45.640;11.756;2023-02-15T06:11:06;35.05;;;19.60;;
63016;SDS011;50274;45.640;11.756;2023-02-15T06:13:32;32.55;;;18.52;;
63016;SDS011;50274;45.640;11.756;2023-02-15T06:15:59;31.38;;;16.50;;
63016;SDS011;50274;45.640;11.756;2023-02-15T06:18:25;33.73;;;16.90;;
63016;SDS011;50274;45.640;11.756;2023-02-15T06:20:52;34.47;;;17.48;;
63016;SDS011;50274;45.640;11.756;2023-02-15T06:23:18;26.88;;;15.05;;
63016;SDS011;50274;45.640;11.756;2023-02-15T06:25:44;35.47;;;17.90;;
63016;SDS011;50274;45.640;11.756;2023-02-15T06:28:11;31.10;;;16.97;;
63016;SDS011;50274;45.640;11.756;2023-02-15T06:30:37;30.73;;;16.95;;
63016;SDS011;50274;45.640;11.756;2023-02-15T06:33:02;31.30;;;16.67;;
63016;SDS011;50274;45.640;11.756;2023-02-15T06:35:28;36.33;;;17.07;;
63016;SDS011;50274;45.640;11.756;2023-02-15T06:37:54;28.65;;;16.48;;
63016;SDS011;50274;45.640;11.756;2023-02-15T06:40:20;29.20;;;16.13;;
63016;SDS011;50274;45.640;11.756;2023-02-15T06:42:46;29.03;;;15.57;;
63016;SDS011;50274;45.640;11.756;2023-02-15T06:45:12;30.65;;;16.88;;
63016;SDS011;50274;45.640;11.756;2023-02-15T06:47:38;31.13;;;15.35;;
63016;SDS011;50274;45.640;11.756;2023-02-15T06:50:04;25.92;;;15.13;;
63016;SDS011;50274;45.640;11.756;2023-02-15T06:52:31;28.70;;;15.50;;
63016;SDS011;50274;45.640;11.756;2023-02-15T06:54:57;30.77;;;16.33;;
63016;SDS011;50274;45.640;11.756;2023-02-15T06:57:22;28.83;;;15.33;;
63016;SDS011;50274;45.640;11.756;2023-02-15T06:59:48;30.48;;;16.60;;
63016;SDS011;50274;45.640;11.756;2023-02-15T07:02:14;33.88;;;18.33;;
63016;SDS011;50274;45.640;11.756;2023-02-15T07:04:40;28.00;;;14.37;;
63016;SDS011;50274;45.640;11.756;2023-02-15T07:07:09;27.38;;;14.23;;
63016;SDS011;50274;45.640;11.756;2023-02-15T07:09:36;30.13;;;15.65;;
63016;SDS011;50274;45.640;11.756;2023-02-15T07:12:02;32.15;;;15.20;;
63016;SDS011;50274;45.640;11.756;2023-02-15T07:14:47;27.35;;;13.80;;
63016;SDS011;50274;45.640;11.756;2023-02-15T07:17:12;35.37;;;16.13;;
63016;SDS011;50274;45.640;11.756;2023-02-15T07:19:38;28.70;;;14.63;;
63016;SDS011;50274;45.640;11.756;2023-02-15T07:22:04;27.80;;;14.60;;
63016;SDS011;50274;45.640;11.756;2023-02-15T07:24:30;32.25;;;16.13;;
63016;SDS011;50274;45.640;11.756;2023-02-15T07:26:56;28.48;;;14.48;;
63016;SDS011;50274;45.640;11.756;2023-02-15T07:29:22;21.80;;;12.10;;
63016;SDS011;50274;45.640;11.756;2023-02-15T07:31:48;29.55;;;15.23;;
63016;SDS011;50274;45.640;11.756;2023-02-15T07:34:14;35.25;;;16.65;;
63016;SDS011;50274;45.640;11.756;2023-02-15T07:36:40;24.15;;;13.32;;
63016;SDS011;50274;45.640;11.756;2023-02-15T07:39:06;27.63;;;15.57;;
63016;SDS011;50274;45.640;11.756;2023-02-15T07:41:32;30.17;;;14.00;;
63016;SDS011;50274;45.640;11.756;2023-02-15T07:43:58;27.00;;;14.32;;
63016;SDS011;50274;45.640;11.756;2023-02-15T07:46:24;35.00;;;17.63;;
63016;SDS011;50274;45.640;11.756;2023-02-15T07:48:50;32.22;;;17.58;;
63016;SDS011;50274;45.640;11.756;2023-02-15T07:51:36;34.77;;;17.20;;
63016;SDS011;50274;45.640;11.756;2023-02-15T07:54:02;38.05;;;17.98;;
63016;SDS011;50274;45.640;11.756;2023-02-15T07:56:27;38.00;;;20.30;;
63016;SDS011;50274;45.640;11.756;2023-02-15T07:58:53;41.87;;;20.40;;
63016;SDS011;50274;45.640;11.756;2023-02-15T08:01:27;42.05;;;18.60;;
63016;SDS011;50274;45.640;11.756;2023-02-15T08:03:55;34.42;;;18.23;;
63016;SDS011;50274;45.640;11.756;2023-02-15T08:06:22;41.10;;;20.92;;
63016;SDS011;50274;45.640;11.756;2023-02-15T08:08:50;42.80;;;20.73;;
63016;SDS011;50274;45.640;11.756;2023-02-15T08:11:18;41.78;;;20.20;;
63016;SDS011;50274;45.640;11.756;2023-02-15T08:13:58;41.20;;;22.10;;
63016;SDS011;50274;45.640;11.756;2023-02-15T08:16:36;45.03;;;24.05;;
63016;SDS011;50274;45.640;11.756;2023-02-15T08:21:29;48.77;;;24.37;;
63016;SDS011;50274;45.640;11.756;2023-02-15T08:23:55;50.10;;;23.13;;
63016;SDS011;50274;45.640;11.756;2023-02-15T08:26:22;42.25;;;23.25;;
63016;SDS011;50274;45.640;11.756;2023-02-15T08:28:48;47.67;;;24.65;;
63016;SDS011;50274;45.640;11.756;2023-02-15T08:31:15;45.22;;;23.13;;
63016;SDS011;50274;45.640;11.756;2023-02-15T08:33:42;43.07;;;24.40;;
63016;SDS011;50274;45.640;11.756;2023-02-15T08:36:11;44.75;;;24.77;;
63016;SDS011;50274;45.640;11.756;2023-02-15T08:38:38;50.42;;;27.85;;
63016;SDS011;50274;45.640;11.756;2023-02-15T08:41:10;48.35;;;25.42;;
63016;SDS011;50274;45.640;11.756;2023-02-15T08:43:48;43.25;;;23.70;;
63016;SDS011;50274;45.640;11.756;2023-02-15T08:46:16;45.20;;;26.17;;
63016;SDS011;50274;45.640;11.756;2023-02-15T08:48:43;39.42;;;23.17;;
63016;SDS011;50274;45.640;11.756;2023-02-15T08:51:11;42.25;;;24.02;;
63016;SDS011;50274;45.640;11.756;2023-02-15T08:53:39;43.78;;;24.88;;
63016;SDS011;50274;45.640;11.756;2023-02-15T08:56:14;43.95;;;23.77;;
63016;SDS011;50274;45.640;11.756;2023-02-15T08:58:41;43.10;;;24.70;;
63016;SDS011;50274;45.640;11.756;2023-02-15T09:01:10;44.47;;;24.00;;
63016;SDS011;50274;45.640;11.756;2023-02-15T09:03:38;42.20;;;23.92;;
63016;SDS011;50274;45.640;11.756;2023-02-15T09:06:05;40.05;;;23.17;;
63016;SDS011;50274;45.640;11.756;2023-02-15T09:08:31;39.73;;;21.53;;
63016;SDS011;50274;45.640;11.756;2023-02-15T09:11:04;45.05;;;23.23;;
63016;SDS011;50274;45.640;11.756;2023-02-15T09:13:34;42.17;;;22.50;;
63016;SDS011;50274;45.640;11.756;2023-02-15T09:16:05;45.67;;;23.75;;
63016;SDS011;50274;45.640;11.756;2023-02-15T09:18:33;51.20;;;26.80;;
63016;SDS011;50274;45.640;11.756;2023-02-15T09:21:06;64.80;;;32.37;;
63016;SDS011;50274;45.640;11.756;2023-02-15T09:23:33;59.47;;;32.83;;
63016;SDS011;50274;45.640;11.756;2023-02-15T09:26:06;63.15;;;30.95;;
63016;SDS011;50274;45.640;11.756;2023-02-15T09:28:33;67.90;;;33.58;;
63016;SDS011;50274;45.640;11.756;2023-02-15T09:33:48;51.13;;;27.00;;
63016;SDS011;50274;45.640;11.756;2023-02-15T09:38:55;46.75;;;26.05;;
63016;SDS011;50274;45.640;11.756;2023-02-15T09:47:40;47.38;;;23.60;;
63016;SDS011;50274;45.640;11.756;2023-02-15T10:01:20;42.25;;;23.20;;
63016;SDS011;50274;45.640;11.756;2023-02-15T10:04:05;41.72;;;23.98;;
63016;SDS011;50274;45.640;11.756;2023-02-15T10:15:09;48.83;;;25.63;;
63016;SDS011;50274;45.640;11.756;2023-02-15T10:28:23;43.40;;;23.52;;
63016;SDS011;50274;45.640;11.756;2023-02-15T10:31:06;43.90;;;25.08;;
63016;SDS011;50274;45.640;11.756;2023-02-15T10:34:04;40.53;;;22.37;;
63016;SDS011;50274;45.640;11.756;2023-02-15T10:45:04;44.75;;;23.98;;
63016;SDS011;50274;45.640;11.756;2023-02-15T10:56:22;41.83;;;23.90;;
63016;SDS011;50274;45.640;11.756;2023-02-15T11:06:59;43.45;;;26.02;;
63016;SDS011;50274;45.640;11.756;2023-02-15T11:09:38;43.00;;;24.65;;
63016;SDS011;50274;45.640;11.756;2023-02-15T11:12:10;44.55;;;26.05;;
63016;SDS011;50274;45.640;11.756;2023-02-15T11:14:49;44.37;;;24.80;;
63016;SDS011;50274;45.640;11.756;2023-02-15T11:17:28;42.72;;;25.15;;
63016;SDS011;50274;45.640;11.756;2023-02-15T11:20:08;46.38;;;26.58;;
63016;SDS011;50274;45.640;11.756;2023-02-15T11:22:44;44.20;;;25.02;;
63016;SDS011;50274;45.640;11.756;2023-02-15T11:25:20;44.63;;;25.05;;
63016;SDS011;50274;45.640;11.756;2023-02-15T11:27:50;42.00;;;25.30;;
63016;SDS011;50274;45.640;11.756;2023-02-15T11:30:22;41.25;;;23.90;;
63016;SDS011;50274;45.640;11.756;2023-02-15T11:32:51;39.85;;;23.67;;
63016;SDS011;50274;45.640;11.756;2023-02-15T11:35:23;46.92;;;23.95;;
63016;SDS011;50274;45.640;11.756;2023-02-15T11:37:59;44.50;;;24.83;;
63016;SDS011;50274;45.640;11.756;2023-02-15T11:40:32;40.03;;;23.63;;
63016;SDS011;50274;45.640;11.756;2023-02-15T11:43:06;41.92;;;23.80;;
63016;SDS011;50274;45.640;11.756;2023-02-15T11:45:38;40.55;;;24.60;;
63016;SDS011;50274;45.640;11.756;2023-02-15T11:48:11;43.25;;;24.27;;
63016;SDS011;50274;45.640;11.756;2023-02-15T11:50:39;41.53;;;23.75;;
63016;SDS011;50274;45.640;11.756;2023-02-15T11:53:09;40.53;;;22.87;;
63016;SDS011;50274;45.640;11.756;2023-02-15T11:55:46;46.55;;;25.55;;
63016;SDS011;50274;45.640;11.756;2023-02-15T11:58:25;39.50;;;22.45;;
63016;SDS011;50274;45.640;11.756;2023-02-15T12:03:46;48.92;;;27.35;;
63016;SDS011;50274;45.640;11.756;2023-02-15T12:06:25;44.53;;;24.67;;
63016;SDS011;50274;45.640;11.756;2023-02-15T12:11:45;38.92;;;21.77;;
63016;SDS011;50274;45.640;11.756;2023-02-15T12:14:11;38.50;;;21.73;;
63016;SDS011;50274;45.640;11.756;2023-02-15T12:16:53;39.58;;;22.50;;
63016;SDS011;50274;45.640;11.756;2023-02-15T12:19:28;40.70;;;22.07;;
63016;SDS011;50274;45.640;11.756;2023-02-15T12:22:02;39.22;;;22.02;;
63016;SDS011;50274;45.640;11.756;2023-02-15T12:27:04;46.40;;;25.83;;
63016;SDS011;50274;45.640;11.756;2023-02-15T12:29:51;45.42;;;26.10;;
63016;SDS011;50274;45.640;11.756;2023-02-15T12:32:34;43.90;;;24.63;;
63016;SDS011;50274;45.640;11.756;2023-02-15T12:35:08;42.30;;;24.25;;
63016;SDS011;50274;45.640;11.756;2023-02-15T12:37:39;42.75;;;23.30;;
63016;SDS011;50274;45.640;11.756;2023-02-15T12:40:22;43.17;;;23.23;;
63016;SDS011;50274;45.640;11.756;2023-02-15T12:42:50;45.63;;;24.17;;
63016;SDS011;50274;45.640;11.756;2023-02-15T12:48:07;44.40;;;25.70;;
63016;SDS011;50274;45.640;11.756;2023-02-15T12:50:37;42.10;;;23.02;;
63016;SDS011;50274;45.640;11.756;2023-02-15T12:55:50;46.08;;;25.92;;
63016;SDS011;50274;45.640;11.756;2023-02-15T12:58:22;41.43;;;22.83;;
63016;SDS011;50274;45.640;11.756;2023-02-15T13:03:34;47.05;;;26.42;;
63016;SDS011;50274;45.640;11.756;2023-02-15T13:06:02;42.50;;;24.23;;
63016;SDS011;50274;45.640;11.756;2023-02-15T13:08:49;42.08;;;24.35;;
63016;SDS011;50274;45.640;11.756;2023-02-15T13:11:34;39.90;;;23.97;;
63016;SDS011;50274;45.640;11.756;2023-02-15T13:14:04;45.47;;;23.17;;
63016;SDS011;50274;45.640;11.756;2023-02-15T13:17:05;41.17;;;23.83;;
63016;SDS011;50274;45.640;11.756;2023-02-15T13:19:35;46.13;;;25.35;;
63016;SDS011;50274;45.640;11.756;2023-02-15T13:22:16;46.03;;;24.85;;
63016;SDS011;50274;45.640;11.756;2023-02-15T13:24:48;46.43;;;24.80;;
63016;SDS011;50274;45.640;11.756;2023-02-15T13:27:20;42.10;;;24.45;;
63016;SDS011;50274;45.640;11.756;2023-02-15T13:29:51;45.13;;;24.65;;
63016;SDS011;50274;45.640;11.756;2023-02-15T13:32:26;43.85;;;25.17;;
63016;SDS011;50274;45.640;11.756;2023-02-15T13:34:59;44.85;;;24.35;;
63016;SDS011;50274;45.640;11.756;2023-02-15T13:51:21;38.77;;;21.40;;
63016;SDS011;50274;45.640;11.756;2023-02-15T13:54:02;44.55;;;24.17;;
63016;SDS011;50274;45.640;11.756;2023-02-15T13:56:38;47.58;;;26.58;;
63016;SDS011;50274;45.640;11.756;2023-02-15T14:15:47;47.15;;;26.80;;
63016;SDS011;50274;45.640;11.756;2023-02-15T14:18:25;47.03;;;28.00;;
63016;SDS011;50274;45.640;11.756;2023-02-15T14:20:57;45.53;;;25.58;;
63016;SDS011;50274;45.640;11.756;2023-02-15T14:31:55;46.23;;;26.53;;
63016;SDS011;50274;45.640;11.756;2023-02-15T14:34:30;54.42;;;28.23;;
63016;SDS011;50274;45.640;11.756;2023-02-15T14:37:00;53.15;;;28.70;;
63016;SDS011;50274;45.640;11.756;2023-02-15T14:45:14;43.90;;;25.13;;
63016;SDS011;50274;45.640;11.756;2023-02-15T14:47:42;53.60;;;28.38;;
63016;SDS011;50274;45.640;11.756;2023-02-15T14:50:38;49.65;;;27.52;;
63016;SDS011;50274;45.640;11.756;2023-02-15T14:53:20;52.88;;;29.30;;
63016;SDS011;50274;45.640;11.756;2023-02-15T14:55:47;49.10;;;26.20;;
63016;SDS011;50274;45.640;11.756;2023-02-15T15:01:24;56.15;;;28.42;;
63016;SDS011;50274;45.640;11.756;2023-02-15T15:03:53;50.45;;;27.58;;
63016;SDS011;50274;45.640;11.756;2023-02-15T15:06:26;45.05;;;26.15;;
63016;SDS011;50274;45.640;11.756;2023-02-15T15:08:59;50.25;;;27.42;;
63016;SDS011;50274;45.640;11.756;2023-02-15T15:11:37;55.00;;;27.27;;
63016;SDS011;50274;45.640;11.756;2023-02-15T15:14:03;46.05;;;26.92;;
63016;SDS011;50274;45.640;11.756;2023-02-15T15:19:01;45.50;;;25.23;;
63016;SDS011;50274;45.640;11.756;2023-02-15T15:30:48;55.55;;;28.00;;
63016;SDS011;50274;45.640;11.756;2023-02-15T15:49:31;50.00;;;27.47;;
63016;SDS011;50274;45.640;11.756;2023-02-15T15:52:07;48.58;;;26.90;;
63016;SDS011;50274;45.640;11.756;2023-02-15T15:54:39;49.38;;;25.30;;
63016;SDS011;50274;45.640;11.756;2023-02-15T15:57:11;49.17;;;26.35;;
63016;SDS011;50274;45.640;11.756;2023-02-15T15:59:44;50.13;;;27.10;;
63016;SDS011;50274;45.640;11.756;2023-02-15T16:02:13;51.80;;;27.33;;
63016;SDS011;50274;45.640;11.756;2023-02-15T16:04:43;48.30;;;26.20;;
63016;SDS011;50274;45.640;11.756;2023-02-15T16:07:20;54.00;;;27.63;;
63016;SDS011;50274;45.640;11.756;2023-02-15T16:09:56;54.80;;;28.35;;
63016;SDS011;50274;45.640;11.756;2023-02-15T16:12:26;58.33;;;27.75;;
63016;SDS011;50274;45.640;11.756;2023-02-15T16:14:55;56.03;;;29.47;;
63016;SDS011;50274;45.640;11.756;2023-02-15T16:17:26;60.15;;;29.95;;
63016;SDS011;50274;45.640;11.756;2023-02-15T16:20:06;54.80;;;29.20;;
63016;SDS011;50274;45.640;11.756;2023-02-15T16:22:41;53.80;;;27.50;;
63016;SDS011;50274;45.640;11.756;2023-02-15T16:25:17;55.85;;;29.15;;
63016;SDS011;50274;45.640;11.756;2023-02-15T16:27:51;51.17;;;28.73;;
63016;SDS011;50274;45.640;11.756;2023-02-15T16:30:27;58.03;;;29.13;;
63016;SDS011;50274;45.640;11.756;2023-02-15T16:33:13;53.95;;;27.85;;
63016;SDS011;50274;45.640;11.756;2023-02-15T16:36:02;53.78;;;28.42;;
63016;SDS011;50274;45.640;11.756;2023-02-15T16:41:29;54.97;;;26.73;;
63016;SDS011;50274;45.640;11.756;2023-02-15T16:43:59;45.67;;;24.13;;
63016;SDS011;50274;45.640;11.756;2023-02-15T16:46:41;50.10;;;26.40;;
63016;SDS011;50274;45.640;11.756;2023-02-15T16:49:16;48.92;;;25.52;;
63016;SDS011;50274;45.640;11.756;2023-02-15T16:51:46;46.07;;;24.33;;
63016;SDS011;50274;45.640;11.756;2023-02-15T16:54:26;48.50;;;26.08;;
63016;SDS011;50274;45.640;11.756;2023-02-15T16:56:54;52.75;;;27.10;;
63016;SDS011;50274;45.640;11.756;2023-02-15T17:02:03;53.25;;;28.77;;
63016;SDS011;50274;45.640;11.756;2023-02-15T17:04:31;55.43;;;31.63;;
63016;SDS011;50274;45.640;11.756;2023-02-15T17:07:33;53.65;;;28.85;;
63016;SDS011;50274;45.640;11.756;2023-02-15T17:09:52;49.97;;;27.13;;
63016;SDS011;50274;45.640;11.756;2023-02-15T17:18:04;52.93;;;27.00;;
63016;SDS011;50274;45.640;11.756;2023-02-15T17:20:39;50.55;;;26.13;;
63016;SDS011;50274;45.640;11.756;2023-02-15T17:24:13;51.67;;;28.30;;
63016;SDS011;50274;45.640;11.756;2023-02-15T17:28:46;47.60;;;27.58;;
63016;SDS011;50274;45.640;11.756;2023-02-15T17:31:24;49.23;;;28.77;;
63016;SDS011;50274;45.640;11.756;2023-02-15T17:33:53;51.33;;;27.50;;
63016;SDS011;50274;45.640;11.756;2023-02-15T17:36:21;53.60;;;28.67;;
63016;SDS011;50274;45.640;11.756;2023-02-15T17:41:47;54.88;;;30.25;;
63016;SDS011;50274;45.640;11.756;2023-02-15T17:44:17;52.00;;;29.40;;
63016;SDS011;50274;45.640;11.756;2023-02-15T17:46:46;52.30;;;29.10;;
63016;SDS011;50274;45.640;11.756;2023-02-15T17:49:25;49.17;;;27.50;;
63016;SDS011;50274;45.640;11.756;2023-02-15T17:52:27;52.80;;;28.17;;
63016;SDS011;50274;45.640;11.756;2023-02-15T17:54:54;52.57;;;27.53;;
63016;SDS011;50274;45.640;11.756;2023-02-15T17:57:39;48.13;;;26.73;;